Annapolis, WA

8:52 PM PDT on October 20, 2014 (GMT -0700)
Bremerton National | Change Station
CLOSE
Current Station
Airport
Location: Bremerton,
Elevation: 443 ft
Nearby Weather Stations

Elev 443 ft 47.49 °N, 122.76 °W | Updated 17 minutes ago

Partly Cloudy
Partly Cloudy
54 °F
Feels Like 54 °F
N
4
Wind Variable Wind from South

Today
High -- | Low -- °F
--% Chance of Precip.
Yesterday
High -- | Low -- °F
Precip. -- in
7:36 AM 6:13 PM
Waning Crescent, 7% visible
Pressure 29.79 in
Visibility 9.0 miles
Clouds Few 2900 ft
Scattered Clouds 3800 ft
Mostly Cloudy 5500 ft
Dew Point 52 °F
Humidity 94%
Rainfall 0.95 in
Snow Depth Not available.
UV 0 out of 12
Pollen .40 out of 12
Air Quality Not available.
Flu Activity Sporadic
METAR KPWT 210335Z AUTO 19003KT 9SM FEW029 SCT038 BKN055 12/11 A2979 RMK AO1

More Conditions Fewer Conditions

Pressure 29.79 in
Visibility 9.0 miles
Clouds Few 2900 ft
Scattered Clouds 3800 ft
Mostly Cloudy 5500 ft
Dew Point 52 °F
Humidity 94%
Rainfall 0.95 in
Snow Depth Not available.
UV 0 out of 12
Pollen .40 out of 12
Air Quality Not available.
Flu Activity Sporadic
METAR KPWT 210335Z AUTO 19003KT 9SM FEW029 SCT038 BKN055 12/11 A2979 RMK AO1

More Conditions Fewer Conditions

10-Day Weather Forecast

Almanac

Astronomy

Oct. 20, 2014 Rise Set
Actual Time 7:36 AM PDT 6:13 PM PDT
Civil Twilight 7:05 AM PDT 6:44 PM PDT
Nautical Twilight 6:29 AM PDT 7:20 PM PDT
Astronomical Twilight 5:54 AM PDT 7:55 PM PDT
Moon 4:17 AM PDT (10/20) 4:49 PM PDT (10/20)
Length of Visible Light 11h 39m
Length of Day
10h 36m
Tomorrow will be 3m 16s shorter.
Waning Crescent, 7% of the Moon is Illuminated
Today
Waning Crescent
Oct 23
New
Oct 30
First Quarter
Nov 6
Full
Nov 14
Last Quarter

Today's Extremes

State Highs State Lows

Community

WunderPhotos

Upload Photos

1,763,594 photos uploaded!

Nearby

Snow Depth

Station Depth Elevation
Dungeness 0 in 4100 ft
Alpine Meadows 0 in 3500 ft
Mount Gardner 0 in 3000 ft
Meadows Pass 0 in 3500 ft
Olallie Meadows 1 in 3700 ft

Earthquake Activity

City Distance Mag. Time & Date
No recent earthquake activity has been reported nearby.
Minimum magnitude displayed is 2.5.

Coastal Water Temperatures

Place Temperature
Port Townsend, WA 52.0 °F
Seattle, WA 55.0 °F
Friday Harbor, WA 51.1 °F
Tacoma, WA 55.0 °F

Nearby Weather Stations